Captain Ed — WDF6338 — position and weather

sailwx.info

Track history (hours):
 
Tides and Currents Weather Stations Pressure Air Temp Water Temp Dewpoint Dewpoint Depression Visibility Wind Speed Wind Dir Waves Ship Positions

Captain Ed

Owner: Norfolk Dredging Company, Chesapeake, VA. More information available from US FCC via Universal Licensing System and Coast Guard Vessel Documentation Center.

Last reported at 2016-May-20 18:09 UTC. Time now 2016-May-31 23:50 UTC.
Position N 36°43' W 076°14'.
Warning: this ship's position is 11 days out of date.

Length 22 m; draft 3 m.

Type: Tug. MMSI: 367473210.

Date/timePositionNaut miles runAvg speedWind from/ knotsBaromVisibWave heightAir tempDewpointWater temp
2016-May-20 18:09N 36°43' W 076°14'1 1.9
2016-May-20 17:30N 36°44' W 076°15'3 3.1
2016-May-20 16:34N 36°45' W 076°18'5 5.0
2016-May-20 15:33N 36°50' W 076°17'1 1.3
2016-May-20 14:33N 36°51' W 076°18'1 0.9
2016-May-20 13:33N 36°52' W 076°19'5 5.1
2016-May-20 12:33N 36°47' W 076°18'1 0.9
2016-May-20 11:33N 36°46' W 076°18'1 1.1
2016-May-20 10:33N 36°45' W 076°18'3 2.9
2016-May-20 09:32N 36°43' W 076°15'  
2016-May-16 18:15N 36°43' W 076°13'2 2.8
2016-May-16 17:33N 36°43' W 076°15'1 0.8
2016-May-16 16:34N 36°44' W 076°16'  
Track history (hours):
 
Tides and Currents Weather Stations Pressure Air Temp Water Temp Dewpoint Dewpoint Depression Visibility Wind Speed Wind Dir Waves Ship Positions

Captain Ed

Owner: Norfolk Dredging Company, Chesapeake, VA. More information available from US FCC via Universal Licensing System and Coast Guard Vessel Documentation Center.

Last reported at 2016-May-20 18:09 UTC. Time now 2016-May-31 23:50 UTC.
Position N 36°43' W 076°14'.
Warning: this ship's position is 11 days out of date.

Length 22 m; draft 3 m.

Type: Tug. MMSI: 367473210.

Date/timePositionNaut miles runAvg speedWind from/ knotsBaromVisibWave heightAir tempDewpointWater temp
2016-May-20 18:09N 36°43' W 076°14'1 1.9
2016-May-20 17:30N 36°44' W 076°15'3 3.1
2016-May-20 16:34N 36°45' W 076°18'5 5.0
2016-May-20 15:33N 36°50' W 076°17'1 1.3
2016-May-20 14:33N 36°51' W 076°18'1 0.9
2016-May-20 13:33N 36°52' W 076°19'5 5.1
2016-May-20 12:33N 36°47' W 076°18'1 0.9
2016-May-20 11:33N 36°46' W 076°18'1 1.1
2016-May-20 10:33N 36°45' W 076°18'3 2.9
2016-May-20 09:32N 36°43' W 076°15'  
2016-May-16 18:15N 36°43' W 076°13'2 2.8
2016-May-16 17:33N 36°43' W 076°15'1 0.8
2016-May-16 16:34N 36°44' W 076°16'  

Dump ship's entire track history